Nearby METAR Reports

 

KDVT - Phoenix/Deer Vly, Arizona, USA
Distance from station: SW 14mi, 22km
Updated: 2020-10-26 02:53
Mostly cloudy
Mostly cloudy
 Wind from SW
Wind: SW 10 mph , 17 km/h
Temperature: 63°F , 17°C
Dew Point: 45°F , 7°C
Humidity: 52%
Barometer: 29.73 inHg , 1006.8 hPa
Clouds: Mostly cloudy
Visibility: 10 miles , 16 km
Cloud details: Mostly cloudy 9000 ft
2020/10/26 09:53 KDVT 260953Z AUTO 23009KT 10SM BKN090 17/07 A2973 RMK AO2 SLP049 T01720072
KSDL - Scottsdale, Arizona, USA
Distance from station: S 15mi, 23km
Updated: 2020-10-26 02:53
Clear
Clear
 Wind from WSW
Wind: WSW 7 mph , 11 km/h
Temperature: 64°F , 18°C
Dew Point: 45°F , 7°C
Humidity: 49%
Barometer: 29.74 inHg , 1007.1 hPa
Clouds: Clear
Visibility: 10 miles , 16 km
2020/10/26 09:53 KSDL 260953Z AUTO 24006KT 10SM CLR 18/07 A2974 RMK AO2 SLP050 T01830067
KFFZ - Mesa/Falcon Fld, Arizona, USA
Distance from station: SSE 27mi, 44km
Updated: 2020-10-26 02:54
Clear
Clear
 Wind from SW
Wind: SW 9 mph , 15 km/h
Temperature: 64°F , 18°C
Dew Point: 43°F , 6°C
Humidity: 46%
Barometer: 29.73 inHg , 1006.8 hPa
Clouds: Clear
Visibility: 10 miles , 16 km
2020/10/26 09:54 KFFZ 260954Z 23008KT 10SM CLR 18/06 A2973 RMK AO2 SLP046 T01830061 $
 
KPHX - Phoenix/Sky Hrbr, Arizona, USA
Distance from station: SSW 28mi, 45km
Updated: 2020-10-26 02:51
Few Clouds
Few Clouds
 Wind from WSW
Wind: WSW 7 mph , 11 km/h
Temperature: 66°F , 19°C
Dew Point: 45°F , 7°C
Humidity: 46%
Barometer: 29.71 inHg , 1006.1 hPa
Clouds: Few Clouds
Visibility: 10 miles , 16 km
Cloud details: Few Clouds 8000 ft
Few Clouds 11000 ft
2020/10/26 09:51 KPHX 260951Z 25006KT 10SM FEW080 FEW110 19/07 A2971 RMK AO2 SLP046 T01940067 $
KLUF - Luke Afb/Glendal, Arizona, USA
Distance from station: SW 34mi, 55km
Updated: 2020-10-26 02:58
Few Clouds
Few Clouds
 Wind from SSW
Wind: SSW 15 mph , 24 km/h
Temperature: 64°F , 18°C
Dew Point: 46°F , 8°C
Humidity: 52%
Barometer: 29.71 inHg , 1006.1 hPa
Clouds: Few Clouds
Visibility: 10 miles , 16 km
Cloud details: Few Clouds 9500 ft
2020/10/26 09:58 KLUF 260958Z AUTO 21013KT 10SM FEW095 18/08 A2971 RMK AO2 SLP050 T01750075 $
KGYR - Goodyear Municip, Arizona, USA
Distance from station: SW 39mi, 63km
Updated: 2020-10-25 20:47
NOT Current
Few Clouds
Few Clouds
 Wind from WSW
Wind: WSW 15 mph , 24 km/h
Temperature: 73°F , 23°C
Dew Point: 46°F , 8°C
Humidity: 38%
Barometer: 29.67 inHg , 1004.7 hPa
Clouds: Few Clouds
Visibility: 10 miles , 16 km
Cloud details: Few Clouds 7000 ft
2020/10/26 03:47 KGYR 260347Z 25013KT 10SM FEW070 23/08 A2967 RMK LAST
 
KIWA - Chandler/Mesa, Arizona, USA
Distance from station: SSE 39mi, 63km
Updated: 2020-10-26 02:55
Partly cloudy
Partly cloudy
 Wind from WSW
Wind: WSW 13 mph , 20 km/h
Temperature: 64°F , 18°C
Dew Point: 43°F , 6°C
Humidity: 46%
Barometer: 29.75 inHg , 1007.5 hPa
Clouds: Partly cloudy
Visibility: 10 miles , 16 km
Cloud details: Partly cloudy 9000 ft
2020/10/26 09:55 KIWA 260955Z AUTO 25011KT 10SM SCT090 18/06 A2975 RMK AO2 T01820065
KPAN - Payson, Arizona, USA
Distance from station: NE 44mi, 70km
Updated: 2020-10-26 02:55
Overcast
Overcast
 Wind from SW
Wind: SW 9 mph , 15 km/h
Temperature: 52°F , 11°C
Dew Point: 41°F , 5°C
Humidity: 67%
Barometer: 29.83 inHg , 1010.2 hPa
Clouds: Overcast
Visibility: 10 miles , 16 km
Cloud details: Partly cloudy 3000 ft
Overcast 3600 ft
2020/10/26 09:55 KPAN 260955Z AUTO 22008KT 10SM SCT030 OVC036 11/05 A2983 RMK AO2
KBXK - Buckeye, Arizona, USA
Distance from station: WSW 53mi, 86km
Updated: 2020-10-26 02:55

 Wind from S
Wind: S 5 mph , 7 km/h
Temperature: 59°F , 15°C
Dew Point: 46°F , 8°C
Humidity: 63%
Barometer: 29.75 inHg , 1007.5 hPa
Visibility: 10 miles , 16 km
2020/10/26 09:55 KBXK 260955Z AUTO 19004KT 10SM 15/08 A2975 RMK A01
 
KA39 - Maricopa Ak-Chin, Arizona, USA
Distance from station: S 58mi, 94km
Updated: 2020-10-26 02:55
Mostly cloudy
Mostly cloudy
 Wind from W
Wind: W 6 mph , 9 km/h
Temperature: 64°F , 18°C
Dew Point: 45°F , 7°C
Humidity: 49%
Barometer: 29.80 inHg , 1009.1 hPa
Clouds: Mostly cloudy
Visibility: 10 miles , 16 km
Cloud details: Partly cloudy 5500 ft
Mostly cloudy 8000 ft
Mostly cloudy 10000 ft
2020/10/26 09:55 KA39 260955Z AUTO 28005KT 10SM SCT055 BKN080 BKN100 18/07 A2980 RMK AO2
KPRC - Prescott, Arizona, USA
Distance from station: NNW 64mi, 103km
Updated: 2020-10-26 02:53
Overcast
Overcast
 Wind from NW
Wind: NW 12 mph , 19 km/h
Temperature: 45°F , 7°C
Wind Chill: 39°F , 4°C
Dew Point: 9°F , -13°C
Humidity: 23%
Barometer: 29.87 inHg , 1011.5 hPa
Clouds: Overcast
Visibility: 10 miles , 16 km
Cloud details: Few Clouds 5500 ft
Mostly cloudy 7000 ft
Overcast 10000 ft
2020/10/26 09:53 KPRC 260953Z AUTO 32010KT 10SM FEW055 BKN070 OVC100 07/M13 A2987 RMK AO2 SLP064 T00671128
KSEZ - Sedona, Arizona, USA
Distance from station: N 71mi, 114km
Updated: 2020-10-26 02:55
Overcast
Overcast
 Wind from NW
Wind: NW 3 mph , 6 km/h
Temperature: 48°F , 9°C
Dew Point: 21°F , -6°C
Humidity: 34%
Barometer: 29.84 inHg , 1010.5 hPa
Clouds: Overcast
Visibility: 10 miles , 16 km
Cloud details: Mostly cloudy 6000 ft
Mostly cloudy 8500 ft
Overcast 11000 ft
2020/10/26 09:55 KSEZ 260955Z AUTO 31003KT 10SM BKN060 BKN085 OVC110 09/M06 A2984 RMK AO2
 
KFLG - Flagstaff, Arizona, USA
Distance from station: N 91mi, 147km
Updated: 2020-10-26 02:57
Overcast
Overcast
 
Temperature: 34°F , 1°C
Dew Point: 18°F , -8°C
Humidity: 51%
Barometer: 29.85 inHg , 1010.8 hPa
Clouds: Overcast
Visibility: 10 miles , 16 km
Cloud details: Overcast 4600 ft
2020/10/26 09:57 KFLG 260957Z AUTO 10SM OVC046 01/M08 A2985 RMK AO2 SLP052 T00111078 TSNO